createdAt,value
2023-05-04T00:00:28.740Z,25.3
2023-05-04T00:01:30.531Z,25.3
2023-05-04T00:02:32.608Z,25.4
2023-05-04T00:03:35.007Z,25.3
2023-05-04T00:04:37.481Z,25.3
2023-05-04T00:05:39.827Z,25.3
2023-05-04T00:06:41.701Z,25.3
2023-05-04T00:07:43.530Z,25.4
2023-05-04T00:08:45.399Z,25.3
2023-05-04T00:09:47.263Z,25.3
2023-05-04T00:10:49.067Z,25.3
2023-05-04T00:11:50.885Z,25.3
2023-05-04T00:12:52.722Z,25.3
2023-05-04T00:13:54.633Z,25.3
2023-05-04T00:14:56.258Z,25.4
2023-05-04T00:15:58.124Z,25.3
2023-05-04T00:17:00.372Z,25.3
2023-05-04T00:18:02.106Z,25.3
2023-05-04T00:19:04.077Z,25.3
2023-05-04T00:20:06.166Z,25.3
2023-05-04T00:21:08.802Z,25.3
2023-05-04T00:22:10.657Z,25.3
2023-05-04T00:23:12.463Z,25.3
2023-05-04T00:24:14.411Z,25.3
2023-05-04T00:25:16.021Z,25.3
2023-05-04T00:26:17.801Z,25.3
2023-05-04T00:27:19.704Z,25.3
2023-05-04T00:28:21.533Z,25.3
2023-05-04T00:29:26.082Z,25.4
2023-05-04T00:30:27.914Z,25.4
2023-05-04T00:31:29.672Z,25.3
2023-05-04T00:32:31.579Z,25.3
2023-05-04T00:33:33.667Z,25.3
2023-05-04T00:34:35.447Z,25.3
2023-05-04T00:35:37.262Z,25.3
2023-05-04T00:36:39.105Z,25.3
2023-05-04T00:37:41.028Z,25.3
2023-05-04T00:38:42.917Z,25.3
2023-05-04T00:39:44.767Z,25.4
2023-05-04T00:40:46.537Z,25.2
2023-05-04T00:41:48.225Z,25.3
2023-05-04T00:42:52.972Z,25.3
2023-05-04T00:43:54.840Z,25.3
2023-05-04T00:44:56.844Z,25.3
2023-05-04T00:45:58.726Z,25.3
2023-05-04T00:47:00.740Z,25.3
2023-05-04T00:48:03.046Z,25.3
2023-05-04T00:49:05.301Z,25.4
2023-05-04T00:50:07.167Z,25.3
2023-05-04T00:51:09.510Z,25.3
2023-05-04T00:52:11.361Z,25.3
2023-05-04T00:53:13.324Z,25.3
2023-05-04T00:54:15.161Z,25.3
2023-05-04T00:55:17.032Z,25.3
2023-05-04T00:56:18.718Z,25.3
2023-05-04T00:57:20.718Z,25.4
2023-05-04T00:58:22.568Z,25.4
2023-05-04T00:59:24.416Z,25.3
2023-05-04T01:00:26.240Z,25.3
2023-05-04T01:01:28.136Z,25.3
2023-05-04T01:02:30.318Z,25.3
2023-05-04T01:03:32.496Z,25.3
2023-05-04T01:04:34.552Z,25.3
2023-05-04T01:05:36.470Z,25.3
2023-05-04T01:06:38.267Z,25.3
2023-05-04T01:07:40.075Z,25.3
2023-05-04T01:08:41.884Z,25.3
2023-05-04T01:09:43.674Z,25.3
2023-05-04T01:10:45.501Z,25.3
2023-05-04T01:11:47.268Z,25.4
2023-05-04T01:12:49.114Z,25.3
2023-05-04T01:13:51.237Z,25.3
2023-05-04T01:14:53.153Z,25.3
2023-05-04T01:15:55.057Z,25.3
2023-05-04T01:16:56.826Z,25.3
2023-05-04T01:17:58.727Z,25.3
2023-05-04T01:19:00.754Z,25.3
2023-05-04T01:20:02.757Z,25.3
2023-05-04T01:21:05.595Z,25.3
2023-05-04T01:22:07.473Z,25.3
2023-05-04T01:23:09.323Z,25.3
2023-05-04T01:24:11.174Z,25.3
2023-05-04T01:25:13.023Z,25.2
2023-05-04T01:26:14.916Z,25.3
2023-05-04T01:27:16.623Z,25.2
2023-05-04T01:28:18.243Z,25.2
2023-05-04T01:29:19.875Z,25.3
2023-05-04T01:30:21.722Z,25.3
2023-05-04T01:31:23.672Z,25.3
2023-05-04T01:32:25.988Z,25.3
2023-05-04T01:33:27.833Z,25.3
2023-05-04T01:34:29.819Z,25.3
2023-05-04T01:35:31.733Z,25.3
2023-05-04T01:36:33.606Z,25.3
2023-05-04T01:37:35.188Z,25.3
2023-05-04T01:38:36.815Z,25.3
2023-05-04T01:39:38.673Z,25.3
2023-05-04T01:40:40.468Z,25.3
2023-05-04T01:41:42.137Z,25.3
2023-05-04T01:42:43.876Z,25.3
2023-05-04T01:43:45.714Z,25.3
2023-05-04T01:44:47.620Z,25.3
2023-05-04T01:45:49.517Z,25.3
2023-05-04T01:46:51.697Z,25.3
2023-05-04T01:47:53.533Z,25.3
2023-05-04T01:48:55.612Z,25.3
2023-05-04T01:49:57.551Z,25.3
2023-05-04T01:50:59.432Z,25.3
2023-05-04T01:52:01.327Z,25.3
2023-05-04T01:53:03.166Z,25.3
2023-05-04T01:54:05.050Z,25.2
2023-05-04T01:55:06.870Z,25.2
2023-05-04T01:56:08.481Z,25.2
2023-05-04T01:57:10.372Z,25.3
2023-05-04T01:58:12.208Z,25.3
2023-05-04T01:59:14.107Z,25.3
2023-05-04T02:00:16.082Z,25.3
2023-05-04T02:01:18.010Z,25.3
2023-05-04T02:02:20.115Z,25.3
2023-05-04T02:03:22.064Z,25.3
2023-05-04T02:04:24.494Z,25.2
2023-05-04T02:05:26.422Z,25.3
2023-05-04T02:06:28.338Z,25.3
2023-05-04T02:07:30.207Z,25.3
2023-05-04T02:08:32.147Z,25.3
2023-05-04T02:09:34.026Z,25.3
2023-05-04T02:10:35.850Z,25.3
2023-05-04T02:11:37.702Z,25.3
2023-05-04T02:12:39.580Z,25.3
2023-05-04T02:13:41.598Z,25.3
2023-05-04T02:14:43.494Z,25.3
2023-05-04T02:15:45.425Z,25.3
2023-05-04T02:16:47.423Z,25.3
2023-05-04T02:17:49.363Z,25.2
2023-05-04T02:18:51.366Z,25.3
2023-05-04T02:19:53.242Z,25.3
2023-05-04T02:20:55.084Z,25.3
2023-05-04T02:21:57.018Z,25.2
2023-05-04T02:22:58.876Z,25.2
2023-05-04T02:24:00.723Z,25.2
2023-05-04T02:25:02.426Z,25.2
2023-05-04T02:26:04.210Z,25.2
2023-05-04T02:27:06.055Z,25.2
2023-05-04T02:28:07.911Z,25.2
2023-05-04T02:29:09.874Z,25.2
2023-05-04T02:30:11.745Z,25.2
2023-05-04T02:31:13.441Z,25.2
2023-05-04T02:32:15.418Z,25.2
2023-05-04T02:33:17.320Z,25.2
2023-05-04T02:34:19.019Z,25.2
2023-05-04T02:35:20.764Z,25.2
2023-05-04T02:36:22.761Z,25.2
2023-05-04T02:37:24.570Z,25.2
2023-05-04T02:38:26.484Z,25.2
2023-05-04T02:39:28.370Z,25.2
2023-05-04T02:40:30.216Z,25.2
2023-05-04T02:41:32.072Z,25.2
2023-05-04T02:42:33.920Z,25.2
2023-05-04T02:43:35.728Z,25.2
2023-05-04T02:44:37.611Z,25.2
2023-05-04T02:45:39.510Z,25.2
2023-05-04T02:46:41.513Z,25.2
2023-05-04T02:47:43.344Z,25.3
2023-05-04T02:48:45.403Z,25.2
2023-05-04T02:49:47.293Z,25.2
2023-05-04T02:50:49.082Z,25.2
2023-05-04T02:51:50.702Z,25.2
2023-05-04T02:52:52.420Z,25.2
2023-05-04T02:53:54.109Z,25.2
2023-05-04T02:54:56.015Z,25.2
2023-05-04T02:55:57.919Z,25.2
2023-05-04T02:56:59.809Z,25.2
2023-05-04T02:58:01.563Z,25.2
2023-05-04T02:59:03.616Z,25.2
2023-05-04T03:00:05.573Z,25.2
2023-05-04T03:01:08.802Z,25.2
2023-05-04T03:02:11.084Z,25.2
2023-05-04T03:03:12.894Z,25.1
2023-05-04T03:04:14.926Z,25.1
2023-05-04T03:05:17.072Z,25.1
2023-05-04T03:06:19.006Z,25.1
2023-05-04T03:07:20.912Z,25.1
2023-05-04T03:08:22.826Z,25.1
2023-05-04T03:09:24.622Z,25.1
2023-05-04T03:10:26.558Z,25.1
2023-05-04T03:11:28.380Z,25.1
2023-05-04T03:12:30.278Z,25.1
2023-05-04T03:13:32.187Z,25.1
2023-05-04T03:14:34.121Z,24.9
2023-05-04T03:15:35.996Z,24.7
2023-05-04T03:16:37.922Z,24.6
2023-05-04T03:17:40.032Z,24.5
2023-05-04T03:18:57.260Z,24.5
2023-05-04T03:19:59.166Z,24.4
2023-05-04T03:21:01.119Z,24.3
2023-05-04T03:22:03.073Z,24.2
2023-05-04T03:23:04.870Z,24.1
2023-05-04T03:24:06.936Z,24.1
2023-05-04T03:25:08.880Z,24.1
2023-05-04T03:26:10.770Z,24
2023-05-04T03:27:12.648Z,23.9
2023-05-04T03:28:14.526Z,23.9
2023-05-04T03:29:16.419Z,23.9
2023-05-04T03:30:18.357Z,23.9
2023-05-04T03:31:20.256Z,23.9
2023-05-04T03:32:22.482Z,23.9
2023-05-04T03:33:24.351Z,23.8
2023-05-04T03:34:26.388Z,23.8
2023-05-04T03:35:28.638Z,23.8
2023-05-04T03:36:30.502Z,23.8
2023-05-04T03:37:32.249Z,23.8
2023-05-04T03:38:34.125Z,23.7
2023-05-04T03:39:36.149Z,23.8
2023-05-04T03:40:38.040Z,23.8
2023-05-04T03:41:39.852Z,23.8
2023-05-04T03:42:41.695Z,23.8
2023-05-04T03:43:43.274Z,23.8
2023-05-04T03:44:45.261Z,23.7
2023-05-04T03:45:47.074Z,23.7
2023-05-04T03:46:49.008Z,23.7
2023-05-04T03:47:50.926Z,23.7
2023-05-04T03:48:52.988Z,23.7
2023-05-04T03:49:54.842Z,23.7
2023-05-04T03:50:56.497Z,23.8
2023-05-04T03:51:58.408Z,23.8
2023-05-04T03:53:00.020Z,23.8
2023-05-04T03:54:01.825Z,23.8
2023-05-04T03:55:03.597Z,23.7
2023-05-04T03:56:05.511Z,23.7
2023-05-04T03:57:07.296Z,23.7
2023-05-04T03:58:09.136Z,23.7
2023-05-04T03:59:11.006Z,23.7
2023-05-04T04:00:12.898Z,23.8
2023-05-04T04:01:14.607Z,23.7
2023-05-04T04:02:16.465Z,23.6
2023-05-04T04:03:18.421Z,23.6
2023-05-04T04:04:21.097Z,23.6
2023-05-04T04:05:23.273Z,23.5
2023-05-04T04:06:25.172Z,23.6
2023-05-04T04:07:26.970Z,23.6
2023-05-04T04:08:28.860Z,23.5
2023-05-04T04:09:30.749Z,23.5
2023-05-04T04:10:32.818Z,23.5
2023-05-04T04:11:34.740Z,23.5
2023-05-04T04:12:36.586Z,23.4
2023-05-04T04:13:38.635Z,23.4
2023-05-04T04:14:40.546Z,23.4
2023-05-04T04:15:42.849Z,23.4
2023-05-04T04:16:44.885Z,23.3
2023-05-04T04:17:46.945Z,23.4
2023-05-04T04:18:48.899Z,23.4
2023-05-04T04:19:50.788Z,23.5
2023-05-04T04:20:52.398Z,23.4
2023-05-04T04:21:54.316Z,23.5
2023-05-04T04:22:56.292Z,23.5
2023-05-04T04:23:58.175Z,23.5
2023-05-04T04:25:00.053Z,23.5
2023-05-04T04:26:01.942Z,23.5
2023-05-04T04:27:03.813Z,23.5
2023-05-04T04:28:05.406Z,23.6
2023-05-04T04:29:07.294Z,23.6
2023-05-04T04:30:09.195Z,23.6
2023-05-04T04:31:11.139Z,23.6
2023-05-04T04:32:13.147Z,23.6
2023-05-04T04:33:15.001Z,23.6
2023-05-04T04:34:16.887Z,23.6
2023-05-04T04:35:18.883Z,23.6
2023-05-04T04:36:23.416Z,23.6
2023-05-04T04:37:25.377Z,23.6
2023-05-04T04:38:27.019Z,23.6
2023-05-04T04:39:28.892Z,23.5
2023-05-04T04:40:31.019Z,23.5
2023-05-04T04:41:32.870Z,23.5
2023-05-04T04:42:34.540Z,23.6
2023-05-04T04:43:36.350Z,23.6
2023-05-04T04:44:38.152Z,23.7
2023-05-04T04:45:40.059Z,23.8
2023-05-04T04:46:41.964Z,23.9
2023-05-04T04:47:43.887Z,24
2023-05-04T04:48:46.158Z,24
2023-05-04T04:49:47.980Z,24.1
2023-05-04T04:50:49.843Z,24.1
2023-05-04T04:51:51.600Z,24.2
2023-05-04T04:52:53.564Z,24.2
2023-05-04T04:53:55.532Z,24.3
2023-05-04T04:54:57.153Z,24.3
2023-05-04T04:55:59.110Z,24.4
2023-05-04T04:57:01.128Z,24.4
2023-05-04T04:58:02.891Z,24.3
2023-05-04T04:59:04.566Z,24.4
2023-05-04T05:00:06.585Z,24.4
2023-05-04T05:01:09.173Z,24.4
2023-05-04T05:02:11.292Z,24.5
2023-05-04T05:03:13.026Z,24.4
2023-05-04T05:04:15.008Z,24.4
2023-05-04T05:05:17.020Z,24.5
2023-05-04T05:06:18.779Z,24.5
2023-05-04T05:07:20.643Z,24.6
2023-05-04T05:08:22.538Z,24.6
2023-05-04T05:09:24.356Z,24.6
2023-05-04T05:10:26.277Z,24.6
2023-05-04T05:11:27.988Z,24.6
2023-05-04T05:12:29.721Z,24.6
2023-05-04T05:13:31.654Z,24.6
2023-05-04T05:14:33.401Z,24.6
2023-05-04T05:15:35.289Z,24.5
2023-05-04T05:16:37.320Z,24.5
2023-05-04T05:17:39.356Z,24.5
2023-05-04T05:18:41.224Z,24.5
2023-05-04T05:19:42.981Z,24.5
2023-05-04T05:20:44.739Z,24.6
2023-05-04T05:21:46.666Z,24.6
2023-05-04T05:22:48.485Z,24.6
2023-05-04T05:23:50.352Z,24.6
2023-05-04T05:24:51.981Z,24.6
2023-05-04T05:25:53.755Z,24.6
2023-05-04T05:26:55.535Z,24.7
2023-05-04T05:27:57.491Z,24.7
2023-05-04T05:28:59.403Z,24.7
2023-05-04T05:30:01.289Z,24.6
2023-05-04T05:31:03.820Z,24.6
2023-05-04T05:32:05.878Z,24.6
2023-05-04T05:33:07.788Z,24.6
2023-05-04T05:34:09.570Z,24.6
2023-05-04T05:35:11.159Z,24.7
2023-05-04T05:36:13.064Z,24.7
2023-05-04T05:37:14.977Z,24.7
2023-05-04T05:38:16.855Z,24.6
2023-05-04T05:39:18.611Z,24.6
2023-05-04T05:40:20.464Z,24.7
2023-05-04T05:41:22.196Z,24.7
2023-05-04T05:42:24.188Z,24.7
2023-05-04T05:43:26.043Z,24.8
2023-05-04T05:44:27.870Z,24.9
2023-05-04T05:45:29.704Z,24.9
2023-05-04T05:46:31.316Z,24.9
2023-05-04T05:47:33.255Z,24.9
2023-05-04T05:48:35.425Z,24.9
2023-05-04T05:49:37.322Z,24.9
2023-05-04T05:50:39.120Z,25
2023-05-04T05:51:41.026Z,24.9
2023-05-04T05:52:42.768Z,25
2023-05-04T05:53:44.617Z,25
2023-05-04T05:54:46.576Z,25
2023-05-04T05:55:48.409Z,25.1
2023-05-04T05:56:50.122Z,25.1
2023-05-04T05:57:52.050Z,25.1
2023-05-04T05:58:53.980Z,25.1
2023-05-04T05:59:55.914Z,25.1
2023-05-04T06:00:57.967Z,25
2023-05-04T06:01:59.817Z,25
2023-05-04T06:03:01.800Z,25.1
2023-05-04T06:04:04.508Z,25.1
2023-05-04T06:05:07.549Z,25.2
2023-05-04T06:06:09.475Z,25.1
2023-05-04T06:07:11.324Z,25.2
2023-05-04T06:08:13.179Z,25.2
2023-05-04T06:09:15.057Z,25.2
2023-05-04T06:10:16.880Z,25.3
2023-05-04T06:11:18.825Z,25.3
2023-05-04T06:12:20.690Z,25.2
2023-05-04T06:13:22.635Z,25.3
2023-05-04T06:14:24.381Z,25.3
2023-05-04T06:15:26.242Z,25.4
2023-05-04T06:16:28.049Z,25.4
2023-05-04T06:17:30.045Z,25.4
2023-05-04T06:18:31.881Z,25.4
2023-05-04T06:19:33.723Z,25.4
2023-05-04T06:20:35.615Z,25.3
2023-05-04T06:21:37.424Z,25.3
2023-05-04T06:22:39.279Z,25.3
2023-05-04T06:23:41.048Z,25.3
2023-05-04T06:24:42.754Z,25.4
2023-05-04T06:25:44.544Z,25.4
2023-05-04T06:26:46.457Z,25.4
2023-05-04T06:27:48.340Z,25.4
2023-05-04T06:28:50.116Z,25.5
2023-05-04T06:29:52.056Z,25.5
2023-05-04T06:30:53.786Z,25.5
2023-05-04T06:31:55.756Z,25.5
2023-05-04T06:32:57.994Z,25.5
2023-05-04T06:33:59.774Z,25.5
2023-05-04T06:35:01.691Z,25.5
2023-05-04T06:36:03.551Z,25.5
2023-05-04T06:37:05.394Z,25.6
2023-05-04T06:38:07.369Z,25.6
2023-05-04T06:39:09.930Z,25.6
2023-05-04T06:40:12.197Z,25.7
2023-05-04T06:41:15.632Z,25.7
2023-05-04T06:42:17.730Z,25.7
2023-05-04T06:43:19.823Z,25.7
2023-05-04T06:44:21.612Z,25.7
2023-05-04T06:45:23.463Z,25.7
2023-05-04T06:46:25.332Z,25.8
2023-05-04T06:47:27.933Z,25.8
2023-05-04T06:48:29.739Z,25.8
2023-05-04T06:49:31.590Z,25.7
2023-05-04T06:50:33.446Z,25.7
2023-05-04T06:51:35.384Z,25.7
2023-05-04T06:52:37.210Z,25.8
2023-05-04T06:53:39.006Z,25.7
2023-05-04T06:54:40.830Z,25.7
2023-05-04T06:55:42.679Z,25.8
2023-05-04T06:56:44.636Z,25.8
2023-05-04T06:57:46.614Z,25.8
2023-05-04T06:58:48.807Z,25.8
2023-05-04T06:59:50.630Z,25.8
2023-05-04T07:00:52.375Z,25.7
2023-05-04T07:01:54.451Z,25.7
2023-05-04T07:02:56.395Z,25.8
2023-05-04T07:03:58.577Z,25.8
2023-05-04T07:05:00.559Z,25.8
2023-05-04T07:06:02.229Z,25.8
2023-05-04T07:07:04.076Z,25.8
2023-05-04T07:08:05.861Z,25.9
2023-05-04T07:09:07.654Z,25.9
2023-05-04T07:10:09.524Z,25.9
2023-05-04T07:11:11.342Z,25.9
2023-05-04T07:12:13.308Z,25.9
2023-05-04T07:13:15.076Z,25.9
2023-05-04T07:14:17.230Z,25.9
2023-05-04T07:15:19.184Z,25.9
2023-05-04T07:16:21.067Z,25.9
2023-05-04T07:17:22.992Z,25.9
2023-05-04T07:18:24.862Z,25.9
2023-05-04T07:19:26.768Z,25.9
2023-05-04T07:20:28.460Z,25.9
2023-05-04T07:21:30.396Z,26
2023-05-04T07:22:32.156Z,26
2023-05-04T07:23:33.917Z,26
2023-05-04T07:24:35.891Z,26
2023-05-04T07:25:37.764Z,25.9
2023-05-04T07:26:39.616Z,25.9
2023-05-04T07:27:41.573Z,25.9
2023-05-04T07:28:43.619Z,25.8
2023-05-04T07:29:45.566Z,25.8
2023-05-04T07:30:47.377Z,25.9
2023-05-04T07:31:49.376Z,25.9
2023-05-04T07:32:51.358Z,25.9
2023-05-04T07:33:53.486Z,25.9
2023-05-04T07:34:55.358Z,25.9
2023-05-04T07:35:57.034Z,25.9
2023-05-04T07:36:59.013Z,25.9
2023-05-04T07:38:01.006Z,25.9
2023-05-04T07:39:02.839Z,25.9
2023-05-04T07:40:04.903Z,25.9
2023-05-04T07:41:08.482Z,25.9
2023-05-04T07:42:10.245Z,25.9
2023-05-04T07:43:12.425Z,25.9
2023-05-04T07:44:14.588Z,25.9
2023-05-04T07:45:16.502Z,25.9
2023-05-04T07:46:18.378Z,25.9
2023-05-04T07:47:20.583Z,26
2023-05-04T07:48:23.409Z,26
2023-05-04T07:49:28.302Z,26
2023-05-04T07:50:30.266Z,26.1
2023-05-04T07:51:32.108Z,26.1
2023-05-04T07:52:33.877Z,26.1
2023-05-04T07:53:35.704Z,26.1
2023-05-04T07:54:37.478Z,26
2023-05-04T07:55:39.264Z,25.9
2023-05-04T07:56:41.139Z,25.9
2023-05-04T07:57:42.730Z,26
2023-05-04T07:58:44.371Z,26.1
2023-05-04T07:59:46.203Z,26.1
2023-05-04T08:00:47.921Z,26.1
2023-05-04T08:01:50.134Z,26.1
2023-05-04T08:02:52.257Z,26.2
2023-05-04T08:03:54.287Z,26.2
2023-05-04T08:04:56.169Z,26.2
2023-05-04T08:05:57.876Z,26.2
2023-05-04T08:06:59.803Z,26.1
2023-05-04T08:08:01.604Z,26
2023-05-04T08:09:03.548Z,26
2023-05-04T08:10:05.541Z,26
2023-05-04T08:11:19.857Z,26
2023-05-04T08:12:23.274Z,26
2023-05-04T08:13:25.103Z,26.1
2023-05-04T08:14:27.044Z,26.1
2023-05-04T08:15:29.104Z,26.1
2023-05-04T08:16:31.853Z,26.1
2023-05-04T08:17:33.956Z,26.2
2023-05-04T08:18:35.990Z,26.2
2023-05-04T08:19:37.902Z,26.2
2023-05-04T08:20:39.804Z,26.2
2023-05-04T08:21:41.485Z,26.2
2023-05-04T08:22:43.247Z,26.3
2023-05-04T08:23:46.397Z,26.3
2023-05-04T08:24:48.305Z,26.3
2023-05-04T08:25:50.154Z,26.3
2023-05-04T08:27:04.085Z,26.3
2023-05-04T08:28:11.872Z,26.2
2023-05-04T08:29:13.739Z,26.2
2023-05-04T08:30:15.579Z,26.2
2023-05-04T08:31:17.597Z,26.1
2023-05-04T08:32:19.597Z,26.1
2023-05-04T08:33:21.559Z,26.1
2023-05-04T08:34:23.920Z,26.1
2023-05-04T08:35:25.834Z,26.2
2023-05-04T08:36:27.921Z,26.2
2023-05-04T08:37:29.664Z,26.3
2023-05-04T08:38:31.544Z,26.3
2023-05-04T08:39:33.480Z,26.3
2023-05-04T08:40:35.492Z,26.3
2023-05-04T08:41:37.300Z,26.3
2023-05-04T08:42:39.265Z,26.3
2023-05-04T08:43:41.688Z,26.3
2023-05-04T08:44:43.955Z,26.4
2023-05-04T08:45:46.661Z,26.3
2023-05-04T08:46:48.811Z,26.3
2023-05-04T08:47:51.069Z,26.3
2023-05-04T08:48:53.104Z,26.3
2023-05-04T08:49:54.830Z,26.3
2023-05-04T08:50:56.611Z,26.3
2023-05-04T08:51:58.488Z,26.3
2023-05-04T08:53:00.275Z,26.4
2023-05-04T08:54:02.125Z,26.4
2023-05-04T08:55:03.897Z,26.5
2023-05-04T08:56:06.871Z,26.5
2023-05-04T08:57:08.794Z,26.6
2023-05-04T08:58:10.705Z,26.6
2023-05-04T08:59:12.595Z,26.6
2023-05-04T09:00:14.542Z,26.6
2023-05-04T09:01:16.270Z,26.5
2023-05-04T09:02:18.974Z,26.5
2023-05-04T09:03:20.744Z,26.5
2023-05-04T09:04:23.340Z,26.5
2023-05-04T09:05:25.468Z,26.5
2023-05-04T09:06:27.181Z,26.5
2023-05-04T09:07:28.948Z,26.6
2023-05-04T09:08:31.133Z,26.6
2023-05-04T09:09:32.829Z,26.5
2023-05-04T09:10:34.604Z,26.5
2023-05-04T09:11:36.335Z,26.5
2023-05-04T09:12:38.248Z,26.4
2023-05-04T09:13:40.550Z,26.4
2023-05-04T09:14:42.396Z,26.4
2023-05-04T09:15:44.272Z,26.4
2023-05-04T09:16:46.075Z,26.4
2023-05-04T09:17:57.291Z,26.5
2023-05-04T09:19:00.284Z,26.5
2023-05-04T09:20:02.248Z,26.6
2023-05-04T09:21:04.143Z,26.6
2023-05-04T09:22:05.909Z,26.7
2023-05-04T09:23:07.753Z,26.7
2023-05-04T09:24:09.700Z,26.7
2023-05-04T09:25:11.623Z,26.6
2023-05-04T09:26:13.403Z,26.6
2023-05-04T09:27:15.292Z,26.6
2023-05-04T09:28:17.136Z,26.7
2023-05-04T09:29:18.729Z,26.7
2023-05-04T09:30:20.556Z,26.8
2023-05-04T09:31:22.376Z,26.8
2023-05-04T09:32:24.727Z,26.8
2023-05-04T09:33:26.859Z,26.8
2023-05-04T09:34:29.339Z,26.8
2023-05-04T09:35:33.428Z,26.8
2023-05-04T09:36:36.190Z,26.8
2023-05-04T09:37:37.938Z,26.7
2023-05-04T09:38:39.711Z,26.7
2023-05-04T09:39:41.531Z,26.7
2023-05-04T09:40:43.452Z,26.6
2023-05-04T09:41:45.337Z,26.6
2023-05-04T09:42:47.193Z,26.6
2023-05-04T09:43:49.075Z,26.6
2023-05-04T09:44:50.902Z,26.6
2023-05-04T09:45:52.600Z,26.7
2023-05-04T09:46:54.653Z,26.7
2023-05-04T09:47:56.568Z,26.8
2023-05-04T09:48:58.708Z,26.8
2023-05-04T09:50:00.465Z,26.7
2023-05-04T09:51:02.570Z,26.7
2023-05-04T09:52:05.030Z,26.6
2023-05-04T09:53:06.921Z,26.7
2023-05-04T09:54:08.785Z,26.7
2023-05-04T09:55:10.880Z,26.8
2023-05-04T09:56:12.488Z,26.9
2023-05-04T09:57:14.570Z,26.9
2023-05-04T09:58:16.432Z,26.9
2023-05-04T09:59:18.229Z,26.9
2023-05-04T10:00:20.222Z,27
2023-05-04T10:01:22.254Z,26.9
2023-05-04T10:02:24.587Z,26.9
2023-05-04T10:03:27.201Z,27
2023-05-04T10:04:29.222Z,27
2023-05-04T10:05:30.908Z,27.1
2023-05-04T10:06:32.850Z,27.1
2023-05-04T10:07:34.759Z,27.2
2023-05-04T10:08:36.703Z,27.2
2023-05-04T10:09:38.460Z,27.1
2023-05-04T10:10:40.346Z,27.1
2023-05-04T10:11:42.178Z,27
2023-05-04T10:12:44.035Z,27
2023-05-04T10:13:45.984Z,27
2023-05-04T10:14:47.720Z,27
2023-05-04T10:15:49.990Z,27
2023-05-04T10:16:51.872Z,27
2023-05-04T10:17:54.229Z,27
2023-05-04T10:18:56.403Z,27.1
2023-05-04T10:19:58.410Z,27.1
2023-05-04T10:21:00.308Z,27.2
2023-05-04T10:22:02.364Z,27.2
2023-05-04T10:23:04.387Z,27.1
2023-05-04T10:24:06.282Z,27.1
2023-05-04T10:25:08.160Z,27.1
2023-05-04T10:26:10.429Z,27.1
2023-05-04T10:27:12.552Z,27.2
2023-05-04T10:28:14.456Z,27.2
2023-05-04T10:29:16.382Z,27.3
2023-05-04T10:30:18.635Z,27.3
2023-05-04T10:31:20.588Z,27.3
2023-05-04T10:32:22.803Z,27.2
2023-05-04T10:33:24.742Z,27.2
2023-05-04T10:34:26.945Z,27.2
2023-05-04T10:35:28.787Z,27.1
2023-05-04T10:36:30.688Z,27.1
2023-05-04T10:37:32.546Z,27.1
2023-05-04T10:38:34.399Z,27.1
2023-05-04T10:39:36.371Z,27.1
2023-05-04T10:40:38.230Z,27.2
2023-05-04T10:41:40.111Z,27.2
2023-05-04T10:42:41.854Z,27.2
2023-05-04T10:43:43.772Z,27.2
2023-05-04T10:44:45.676Z,27.2
2023-05-04T10:45:47.603Z,27.2
2023-05-04T10:46:49.688Z,27.2
2023-05-04T10:47:51.550Z,27.3
2023-05-04T10:48:54.389Z,27.3
2023-05-04T10:49:56.253Z,27.2
2023-05-04T10:50:58.131Z,27.2
2023-05-04T10:52:00.059Z,27.2
2023-05-04T10:53:02.001Z,27.2
2023-05-04T10:54:04.401Z,27.2
2023-05-04T10:55:06.448Z,27.2
2023-05-04T10:56:09.002Z,27.1
2023-05-04T10:57:10.898Z,27
2023-05-04T10:58:12.863Z,27
2023-05-04T10:59:14.640Z,27
2023-05-04T11:00:16.490Z,27
2023-05-04T11:01:18.363Z,27
2023-05-04T11:02:20.310Z,26.9
2023-05-04T11:03:22.601Z,26.9
2023-05-04T11:04:25.013Z,26.9
2023-05-04T11:05:26.858Z,26.8
2023-05-04T11:06:28.912Z,26.8
2023-05-04T11:07:31.061Z,26.8
2023-05-04T11:08:32.839Z,26.8
2023-05-04T11:09:34.739Z,26.7
2023-05-04T11:10:37.148Z,26.7
2023-05-04T11:11:39.029Z,26.7
2023-05-04T11:12:41.045Z,26.6
2023-05-04T11:13:42.999Z,26.5
2023-05-04T11:14:44.706Z,26.5
2023-05-04T11:15:46.528Z,26.5
2023-05-04T11:16:48.422Z,26.5
2023-05-04T11:17:50.560Z,26.5
2023-05-04T11:18:52.617Z,26.5
2023-05-04T11:19:54.403Z,26.5
2023-05-04T11:20:56.369Z,26.5
2023-05-04T11:21:58.023Z,26.5
2023-05-04T11:22:59.950Z,26.4
2023-05-04T11:24:01.743Z,26.4
2023-05-04T11:25:03.842Z,26.4
2023-05-04T11:26:06.667Z,26.4
2023-05-04T11:27:10.945Z,26.4
2023-05-04T11:28:14.285Z,26.3
2023-05-04T11:29:16.780Z,26.3
2023-05-04T11:30:18.577Z,26.3
2023-05-04T11:31:20.540Z,26.3
2023-05-04T11:32:22.830Z,26.3
2023-05-04T11:33:25.153Z,26.2
2023-05-04T11:34:26.960Z,26.2
2023-05-04T11:35:28.811Z,26.2
2023-05-04T11:36:30.668Z,26.2
2023-05-04T11:37:32.514Z,26.1
2023-05-04T11:38:34.416Z,26.1
2023-05-04T11:39:36.329Z,26.1
2023-05-04T11:40:41.496Z,26
2023-05-04T11:41:43.400Z,26.1
2023-05-04T11:42:45.208Z,26
2023-05-04T11:43:47.066Z,26
2023-05-04T11:44:48.940Z,26
2023-05-04T11:45:51.010Z,26.1
2023-05-04T11:46:52.951Z,26.1
2023-05-04T11:47:55.384Z,26.1
2023-05-04T11:48:57.673Z,26.1
2023-05-04T11:49:59.531Z,26.1
2023-05-04T11:51:01.481Z,26.1
2023-05-04T11:52:03.481Z,26.1
2023-05-04T11:53:05.378Z,26.1
2023-05-04T11:54:07.258Z,26.1
2023-05-04T11:55:09.333Z,26.1
2023-05-04T11:56:11.446Z,26.1
2023-05-04T11:57:13.187Z,26
2023-05-04T11:58:15.074Z,26
2023-05-04T11:59:16.792Z,26
2023-05-04T12:00:18.696Z,25.9
2023-05-04T12:01:20.584Z,25.8
2023-05-04T12:02:22.309Z,25.9
2023-05-04T12:03:25.939Z,26
2023-05-04T12:04:55.940Z,26
2023-05-04T12:05:57.798Z,26
2023-05-04T12:07:01.732Z,26
2023-05-04T12:08:03.710Z,26
2023-05-04T12:09:05.940Z,26
2023-05-04T12:10:08.065Z,25.9
2023-05-04T12:11:10.009Z,25.9
2023-05-04T12:12:11.864Z,25.8
2023-05-04T12:13:13.725Z,25.8
2023-05-04T12:14:15.938Z,25.8
2023-05-04T12:15:17.757Z,25.8
2023-05-04T12:16:19.688Z,25.8
2023-05-04T12:17:22.073Z,25.8
2023-05-04T12:18:24.088Z,25.7
2023-05-04T12:19:25.940Z,25.7
2023-05-04T12:20:27.647Z,25.8
2023-05-04T12:21:29.492Z,25.7
2023-05-04T12:22:31.379Z,25.7
2023-05-04T12:23:33.336Z,25.7
2023-05-04T12:24:35.217Z,25.7
2023-05-04T12:25:44.304Z,25.7
2023-05-04T12:27:00.213Z,25.7
2023-05-04T12:28:02.039Z,25.7
2023-05-04T12:29:03.780Z,25.6
2023-05-04T12:30:05.605Z,25.5
2023-05-04T12:31:07.410Z,25.5
2023-05-04T12:32:09.292Z,25.6
2023-05-04T12:33:11.497Z,25.5
2023-05-04T12:34:13.221Z,25.5
2023-05-04T12:35:14.876Z,25.5
2023-05-04T12:36:16.742Z,25.5
2023-05-04T12:37:18.584Z,25.5
2023-05-04T12:38:20.429Z,25.5
2023-05-04T12:39:22.183Z,25.5
2023-05-04T12:40:28.545Z,25.5
2023-05-04T12:41:31.002Z,25.5
2023-05-04T12:42:32.991Z,25.5
2023-05-04T12:43:34.976Z,25.5
2023-05-04T12:44:36.678Z,25.5
2023-05-04T12:45:38.609Z,25.5
2023-05-04T12:46:40.355Z,25.5
2023-05-04T12:47:42.200Z,25.5
2023-05-04T12:48:44.138Z,25.4
2023-05-04T12:49:46.022Z,25.4
2023-05-04T12:50:47.940Z,25.4
2023-05-04T12:51:49.798Z,25.4
2023-05-04T12:52:51.592Z,25.4
2023-05-04T12:53:53.665Z,25.4
2023-05-04T12:54:55.592Z,25.4
2023-05-04T12:55:57.705Z,25.3
2023-05-04T12:56:59.577Z,25.3
2023-05-04T12:58:01.495Z,25.3
2023-05-04T12:59:03.292Z,25.3
2023-05-04T13:00:05.339Z,25.3
2023-05-04T13:01:07.685Z,25.2
2023-05-04T13:02:09.637Z,25.2
2023-05-04T13:03:11.543Z,25.2
2023-05-04T13:04:14.544Z,25.3
2023-05-04T13:05:16.320Z,25.2
2023-05-04T13:06:18.063Z,25.2
2023-05-04T13:07:19.806Z,25.3
2023-05-04T13:08:21.567Z,25.3
2023-05-04T13:09:23.349Z,25.3
2023-05-04T13:10:25.214Z,25.2
2023-05-04T13:11:27.291Z,25.2
2023-05-04T13:12:29.101Z,25.2
2023-05-04T13:13:31.147Z,25.2
2023-05-04T13:14:39.190Z,25.2
2023-05-04T13:15:41.983Z,25.2
2023-05-04T13:16:44.118Z,25.2
2023-05-04T13:17:46.025Z,25.2
2023-05-04T13:18:48.107Z,25.2
2023-05-04T13:19:50.009Z,25.2
2023-05-04T13:20:51.857Z,25.1
2023-05-04T13:21:53.623Z,25.1
2023-05-04T13:22:57.683Z,25.1
2023-05-04T13:24:00.368Z,25
2023-05-04T13:25:02.226Z,25
2023-05-04T13:26:04.043Z,25
2023-05-04T13:27:05.733Z,25
2023-05-04T13:28:07.574Z,25.1
2023-05-04T13:29:09.359Z,25.1
2023-05-04T13:30:11.433Z,25
2023-05-04T13:31:13.371Z,25
2023-05-04T13:32:15.630Z,25
2023-05-04T13:33:28.576Z,25
2023-05-04T13:34:32.829Z,25
2023-05-04T13:35:34.762Z,25
2023-05-04T13:36:36.645Z,25
2023-05-04T13:37:38.555Z,25
2023-05-04T13:38:40.396Z,24.9
2023-05-04T13:39:42.245Z,25
2023-05-04T13:40:44.018Z,25
2023-05-04T13:41:45.822Z,25
2023-05-04T13:42:48.328Z,25
2023-05-04T13:43:50.211Z,25
2023-05-04T13:44:52.583Z,25
2023-05-04T13:45:54.790Z,25
2023-05-04T13:46:56.542Z,25
2023-05-04T13:47:58.865Z,25
2023-05-04T13:49:01.468Z,25
2023-05-04T13:50:03.422Z,25
2023-05-04T13:51:05.275Z,25
2023-05-04T13:52:07.169Z,25